Estación Meteorológica Peña el Pijo (Robertgarden) [ 02/03/23 03:55:37 CET ]

Fecha Hora Presion(HPa) Temp (°C) Humedad % Rocio (°C) Viento ( m/s) Direccion Lluvia 1Hora(mm) Lluvia 24H(mm) LLuvia Total(mm)
2010-Feb-19 01:01:14 984.800 2.9 94 2.0         76.66
2010-Feb-19 02:03:19 984.900 2.9 94 2.0         76.66
2010-Feb-19 03:01:12 984.300 3.3 94 2.4         76.66
2010-Feb-19 04:01:18 983.900 2.9 94 2.0         76.66
2010-Feb-19 05:01:13 984.100 3.3 95 2.5         76.66
2010-Feb-19 06:01:23 984.600 3.6 95 2.9         76.66
2010-Feb-19 07:01:12 985.300 3.7 95 3.0         76.66
2010-Feb-19 08:01:12 985.800 3.6 95 2.9         76.66
2010-Feb-19 09:01:12 986.900 4.2 95 3.5         76.66
2010-Feb-19 10:01:14 987.900 5.3 96 4.7         76.66
2010-Feb-19 11:01:14 989.000 5.7 91 4.3         76.66
2010-Feb-19 12:01:13 989.900 6.3 85 4.0         76.66
2010-Feb-19 13:01:19 990.600 6.1 83 3.4         76.66
2010-Feb-19 14:01:16 991.000 5.8 82 2.9         76.66
2010-Feb-19 15:01:12 991.500 5.4 82 2.5         76.66
2010-Feb-19 16:01:14 993.100 4.6 84 2.1         76.66
2010-Feb-19 17:01:17 993.800 3.3 87 1.3         76.66
2010-Feb-19 18:01:18 994.400 4.4 77 0.7         76.66
2010-Feb-19 19:01:14 996.200 2.8 81 -0.0         76.66
2010-Feb-19 20:01:25 997.000 1.3 87 -0.7         76.66
2010-Feb-19 21:01:18 998.100 1.9 87 -0.1         76.66
2010-Feb-19 22:01:18 999.100 2.3 85 0.0         76.66
2010-Feb-19 23:01:12 999.800 1.9 85 -0.4         76.66

Temperatura Máxima:    Temperatura Mínima:
Presión Máxima:999.800 Hpa    Presión Mínima:983.900 Hpa


Volver